CheckWX is a tool to help pilots better visualize weather data.  It is not intended as a substitute for an official pre-flight weather briefing.

13:22:13 UTC

CYQY METAR
Sydney / J.A. Douglas McCurdy Airport
Sydney, Canada
Current

15 mins ago

CYQY 211307Z 01014G19KT 15SM BKN006 BKN035 14/12 A2990 RMK ST5SC1 SLP129
Observed
Sep-21 @ 13:07 UTC
Wind
  • 010° at 14 KTS
  • Gusting to 19 KTS
Visibility
15 SM
Flight Rules
IFR
Cloud Levels
  • Broken at 600' AGL
  • Broken at 3,500' AGL
Temperature
14°C / 57°F
Dewpoint
12°C / 54°F
Humidity
88%
Altimeter
29.9" Hg
Pressure
1012.52 hPa
Previous

58 mins ago

CYQY 211224Z 35015G21KT 15SM FEW018 SCT045 SCT090 14/12 A2988 RMK SC2SC1AC1 ACSL ASOCTD SLP120
Observed
Sep-21 @ 12:24 UTC
Wind
  • 350° at 15 KTS
  • Gusting to 21 KTS
Visibility
15 SM
Flight Rules
VFR
Cloud Levels
  • Few at 1,800' AGL
  • Scattered at 4,500' AGL
  • Scattered at 9,000' AGL
Temperature
14°C / 57°F
Dewpoint
12°C / 54°F
Humidity
88%
Altimeter
29.88" Hg
Pressure
1011.82 hPa
Previous

1 hour ago

CYQY 211200Z 35015KT 15SM BKN015 BKN045 BKN250 14/12 A2986 RMK SC5SC1CI1 SLP115
Observed
Sep-21 @ 12:00 UTC
Wind
  • 350° at 15 KTS
Visibility
15 SM
Flight Rules
MVFR
Cloud Levels
  • Broken at 1,500' AGL
  • Broken at 4,500' AGL
  • Broken at 25,000' AGL
Temperature
14°C / 57°F
Dewpoint
12°C / 54°F
Humidity
88%
Altimeter
29.86" Hg
Pressure
1011.22 hPa